Time;durP1;ratioP1;P1;durP2;ratioP2;P2;SDS_P1;SDS_P2;PMS_P1;PMS_P2;Temp;Humidity;BMP_temperature;BMP_pressure;BME280_temperature;BME280_humidity;BME280_pressure;Samples;Min_cycle;Max_cycle;Signal;HPM_P1;HPM_P2
2022/01/06 00:01:42;;;;;;;4.97;2.67;;;;;;;;;;4976831;28;20413;-68
2022/01/06 00:04:08;;;;;;;6.33;2.77;;;;;;;;;;4976525;28;20417;-68
2022/01/06 00:06:40;;;;;;;5.10;2.13;;;;;;;;;;4976575;28;20409;-68
2022/01/06 00:09:08;;;;;;;5.90;2.30;;;;;;;;;;4977130;28;20837;-68
2022/01/06 00:11:34;;;;;;;10.20;3.13;;;;;;;;;;4975091;28;20417;-68
2022/01/06 00:14:37;;;;;;;5.43;2.67;;;;;;;;;;4975976;28;20423;-68
2022/01/06 00:24:47;;;;;;;7.90;2.30;;;;;;;;;;4976579;28;20494;-68
2022/01/06 00:27:13;;;;;;;5.70;2.10;;;;;;;;;;4976185;28;20410;-67
2022/01/06 00:29:39;;;;;;;4.93;1.83;;;;;;;;;;4976385;28;20411;-68
2022/01/06 00:32:05;;;;;;;7.50;3.17;;;;;;;;;;4976102;28;20471;-68
2022/01/06 00:34:31;;;;;;;5.47;2.70;;;;;;;;;;4975905;28;20430;-68
2022/01/06 00:36:57;;;;;;;4.90;2.17;;;;;;;;;;4975876;28;20485;-68
2022/01/06 00:39:27;;;;;;;2.60;1.67;;;;;;;;;;4975774;28;20402;-69
2022/01/06 00:41:56;;;;;;;9.87;2.60;;;;;;;;;;4975843;28;20776;-68
2022/01/06 00:44:23;;;;;;;4.57;2.27;;;;;;;;;;4975524;28;20421;-69
2022/01/06 00:46:49;;;;;;;6.50;2.50;;;;;;;;;;4975783;28;20836;-69
2022/01/06 00:49:17;;;;;;;5.23;2.13;;;;;;;;;;4975575;28;20850;-69
2022/01/06 00:51:43;;;;;;;3.50;2.23;;;;;;;;;;4975509;28;20406;-69
2022/01/06 00:54:09;;;;;;;3.20;2.13;;;;;;;;;;4975288;28;20472;-69
2022/01/06 00:56:35;;;;;;;4.27;1.90;;;;;;;;;;4975657;28;20561;-69
2022/01/06 00:59:01;;;;;;;5.03;2.30;;;;;;;;;;4975231;28;20473;-69
2022/01/06 01:01:27;;;;;;;5.93;2.37;;;;;;;;;;4975596;28;20875;-69
2022/01/06 01:03:53;;;;;;;8.70;2.40;;;;;;;;;;4975553;28;20410;-69
2022/01/06 01:06:19;;;;;;;8.83;2.37;;;;;;;;;;4975179;28;20418;-69
2022/01/06 01:08:45;;;;;;;4.60;2.00;;;;;;;;;;4975167;28;20777;-69
2022/01/06 01:11:11;;;;;;;8.73;3.50;;;;;;;;;;4975323;28;20741;-69
2022/01/06 01:13:54;;;;;;;5.30;2.20;;;;;;;;;;4973720;28;21002;-69
2022/01/06 01:16:24;;;;;;;5.17;2.63;;;;;;;;;;4975338;28;20394;-69
2022/01/06 01:18:50;;;;;;;6.80;2.40;;;;;;;;;;4975140;28;20467;-69
2022/01/06 01:21:17;;;;;;;4.60;2.30;;;;;;;;;;4975016;28;20456;-69
2022/01/06 01:23:43;;;;;;;5.07;3.00;;;;;;;;;;4974151;28;20481;-69
2022/01/06 01:26:09;;;;;;;3.93;2.57;;;;;;;;;;4974690;28;20431;-69
2022/01/06 01:28:43;;;;;;;7.23;3.10;;;;;;;;;;4974803;28;20413;-69
2022/01/06 01:33:45;;;;;;;2.70;1.97;;;;;;;;;;4975109;28;20390;-69
2022/01/06 01:36:12;;;;;;;5.23;2.00;;;;;;;;;;4973352;28;20544;-69
2022/01/06 01:38:39;;;;;;;4.03;2.67;;;;;;;;;;4997847;23;20515;-56
2022/01/06 01:41:06;;;;;;;5.50;2.33;;;;;;;;;;4975020;28;20816;-57
2022/01/06 01:43:32;;;;;;;3.13;2.30;;;;;;;;;;4975021;28;20402;-55
2022/01/06 01:46:09;;;;;;;5.60;1.90;;;;;;;;;;4974756;28;20437;-57
2022/01/06 01:48:37;;;;;;;6.47;2.43;;;;;;;;;;4975034;28;20456;-58
2022/01/06 01:51:03;;;;;;;3.50;2.30;;;;;;;;;;4974699;28;20433;-56
2022/01/06 01:53:29;;;;;;;8.73;2.13;;;;;;;;;;4974691;28;20404;-55
2022/01/06 01:55:55;;;;;;;4.00;2.50;;;;;;;;;;4974506;28;20394;-57
2022/01/06 01:58:22;;;;;;;4.17;3.00;;;;;;;;;;4974638;28;20540;-55
2022/01/06 02:00:48;;;;;;;3.10;1.73;;;;;;;;;;4974550;28;20508;-58
2022/01/06 02:03:14;;;;;;;3.20;2.17;;;;;;;;;;4974785;28;20796;-54
2022/01/06 02:05:40;;;;;;;3.93;2.00;;;;;;;;;;4975024;28;20867;-58
2022/01/06 02:08:06;;;;;;;3.33;2.03;;;;;;;;;;4974576;28;20484;-57
2022/01/06 02:10:33;;;;;;;4.60;2.60;;;;;;;;;;4974619;28;20741;-56
2022/01/06 02:13:01;;;;;;;2.83;2.00;;;;;;;;;;4974507;28;20409;-58
2022/01/06 02:15:27;;;;;;;8.53;2.87;;;;;;;;;;4973192;28;20425;-58
2022/01/06 02:17:54;;;;;;;4.80;1.93;;;;;;;;;;4974347;28;20489;-59
2022/01/06 02:20:21;;;;;;;3.93;2.80;;;;;;;;;;4974602;28;20845;-58
2022/01/06 02:22:47;;;;;;;6.03;2.17;;;;;;;;;;4974281;28;20770;-57
2022/01/06 02:25:13;;;;;;;9.50;2.83;;;;;;;;;;4974296;28;20409;-57
2022/01/06 02:27:40;;;;;;;8.40;2.73;;;;;;;;;;4972817;28;20448;-58
2022/01/06 02:30:06;;;;;;;4.50;1.87;;;;;;;;;;4974099;28;20429;-59
2022/01/06 02:32:32;;;;;;;4.07;2.00;;;;;;;;;;4972849;28;20410;-59
2022/01/06 02:35:02;;;;;;;4.97;2.00;;;;;;;;;;4975642;28;20416;-58
2022/01/06 02:37:28;;;;;;;3.63;2.10;;;;;;;;;;4977983;28;20839;-58
2022/01/06 02:39:55;;;;;;;3.93;2.43;;;;;;;;;;4978037;28;20481;-58
2022/01/06 02:42:21;;;;;;;7.90;2.03;;;;;;;;;;4978257;28;20437;-57
2022/01/06 02:44:47;;;;;;;6.20;3.87;;;;;;;;;;4977915;28;20410;-58
2022/01/06 02:47:14;;;;;;;5.67;2.23;;;;;;;;;;4978285;28;20769;-58
2022/01/06 02:49:40;;;;;;;4.23;2.30;;;;;;;;;;4978161;28;20489;-58
2022/01/06 02:52:06;;;;;;;3.20;2.20;;;;;;;;;;4978237;28;20815;-57
2022/01/06 02:54:32;;;;;;;4.10;2.20;;;;;;;;;;4978213;28;20410;-58
2022/01/06 02:56:58;;;;;;;4.00;2.23;;;;;;;;;;4977976;28;20408;-58
2022/01/06 02:59:25;;;;;;;5.10;2.03;;;;;;;;;;4977867;28;20457;-56
2022/01/06 03:01:51;;;;;;;4.37;2.40;;;;;;;;;;4977831;28;20413;-58
2022/01/06 03:04:17;;;;;;;3.63;2.10;;;;;;;;;;4977979;28;20409;-58
2022/01/06 03:06:43;;;;;;;6.47;2.23;;;;;;;;;;4977823;28;20416;-57
2022/01/06 03:09:09;;;;;;;5.77;2.87;;;;;;;;;;4977651;28;20507;-58
2022/01/06 03:11:41;;;;;;;2.37;1.70;;;;;;;;;;4977989;28;20412;-55
2022/01/06 03:14:07;;;;;;;5.77;2.30;;;;;;;;;;4976456;28;20404;-57
2022/01/06 03:16:33;;;;;;;5.90;2.20;;;;;;;;;;4977735;28;20414;-56
2022/01/06 03:18:59;;;;;;;5.67;2.50;;;;;;;;;;4977225;28;20449;-59
2022/01/06 03:21:25;;;;;;;4.03;2.20;;;;;;;;;;4977471;28;20397;-58
2022/01/06 03:23:51;;;;;;;6.30;2.13;;;;;;;;;;4977703;28;20806;-58
2022/01/06 03:26:17;;;;;;;5.13;2.10;;;;;;;;;;4977273;28;20393;-59
2022/01/06 03:28:43;;;;;;;6.17;2.30;;;;;;;;;;4977285;28;20425;-59
2022/01/06 03:31:09;;;;;;;4.93;2.13;;;;;;;;;;4977444;28;20413;-58
2022/01/06 03:33:35;;;;;;;3.33;2.20;;;;;;;;;;4977340;28;20410;-56
2022/01/06 03:36:01;;;;;;;2.63;2.00;;;;;;;;;;4977022;28;20952;-56
2022/01/06 03:38:27;;;;;;;3.60;2.03;;;;;;;;;;4976808;28;20469;-59
2022/01/06 03:40:53;;;;;;;4.33;2.13;;;;;;;;;;4977215;28;20488;-57
2022/01/06 03:43:19;;;;;;;4.10;2.40;;;;;;;;;;4977006;28;20429;-57
2022/01/06 03:45:45;;;;;;;4.40;2.17;;;;;;;;;;4976867;28;20443;-58
2022/01/06 03:48:11;;;;;;;4.33;2.60;;;;;;;;;;4976235;28;20429;-59
2022/01/06 03:50:37;;;;;;;9.00;2.00;;;;;;;;;;4976927;28;20508;-58
2022/01/06 03:53:03;;;;;;;5.13;2.10;;;;;;;;;;4976760;28;20883;-57
2022/01/06 03:55:29;;;;;;;5.63;2.37;;;;;;;;;;4976838;28;20402;-55
2022/01/06 03:57:55;;;;;;;5.77;2.00;;;;;;;;;;4976731;28;21049;-59
2022/01/06 04:00:22;;;;;;;6.33;1.83;;;;;;;;;;4976621;28;20492;-59
2022/01/06 04:02:48;;;;;;;8.07;2.70;;;;;;;;;;4976705;28;20437;-58
2022/01/06 04:05:14;;;;;;;3.33;2.00;;;;;;;;;;4976681;28;20394;-59
2022/01/06 04:07:41;;;;;;;6.07;2.67;;;;;;;;;;4976835;28;20421;-57
2022/01/06 04:10:08;;;;;;;5.50;1.97;;;;;;;;;;4976853;28;20405;-59
2022/01/06 04:12:35;;;;;;;3.77;2.07;;;;;;;;;;4976605;28;20405;-56
2022/01/06 04:15:02;;;;;;;2.77;1.93;;;;;;;;;;4976676;28;20804;-58
2022/01/06 04:17:28;;;;;;;3.77;2.40;;;;;;;;;;4976711;28;20453;-57
2022/01/06 04:19:54;;;;;;;3.57;2.40;;;;;;;;;;4976546;28;20414;-58
2022/01/06 04:22:20;;;;;;;6.23;2.40;;;;;;;;;;4976410;28;20429;-56
2022/01/06 04:24:46;;;;;;;6.40;2.57;;;;;;;;;;4976057;28;20401;-56
2022/01/06 04:27:12;;;;;;;5.77;2.23;;;;;;;;;;4976011;28;20417;-57
2022/01/06 04:29:38;;;;;;;3.13;2.30;;;;;;;;;;4976249;28;20766;-58
2022/01/06 04:32:04;;;;;;;6.80;2.87;;;;;;;;;;4976327;28;20405;-58
2022/01/06 04:34:31;;;;;;;4.07;2.83;;;;;;;;;;4975990;28;20402;-59
2022/01/06 04:36:59;;;;;;;4.80;2.80;;;;;;;;;;4976099;28;20485;-57
2022/01/06 04:39:25;;;;;;;2.93;2.37;;;;;;;;;;4975709;28;20958;-59
2022/01/06 04:41:51;;;;;;;4.27;2.20;;;;;;;;;;4976303;28;20402;-59
2022/01/06 04:44:17;;;;;;;8.67;3.10;;;;;;;;;;4975835;28;20774;-58
2022/01/06 04:46:43;;;;;;;3.10;2.47;;;;;;;;;;4976086;28;20492;-56
2022/01/06 04:49:09;;;;;;;4.03;2.53;;;;;;;;;;4975652;28;20425;-59
2022/01/06 04:51:36;;;;;;;6.43;2.40;;;;;;;;;;4975899;28;20497;-58
2022/01/06 04:54:02;;;;;;;4.07;2.10;;;;;;;;;;4975534;28;20410;-59
2022/01/06 04:56:34;;;;;;;10.03;3.00;;;;;;;;;;4975816;28;20824;-59
2022/01/06 04:59:00;;;;;;;3.17;2.30;;;;;;;;;;4975648;28;20545;-57
2022/01/06 05:01:26;;;;;;;3.80;2.40;;;;;;;;;;4975766;28;20810;-59
2022/01/06 05:03:52;;;;;;;4.00;1.90;;;;;;;;;;4975603;28;20398;-59
2022/01/06 05:06:18;;;;;;;4.43;2.17;;;;;;;;;;4975547;28;20405;-58
2022/01/06 05:08:44;;;;;;;4.17;2.40;;;;;;;;;;4975462;28;20448;-58
2022/01/06 05:11:10;;;;;;;4.87;2.27;;;;;;;;;;4975733;28;20795;-56
2022/01/06 05:13:36;;;;;;;4.90;2.60;;;;;;;;;;4975513;28;20904;-58
2022/01/06 05:16:03;;;;;;;8.27;2.20;;;;;;;;;;4975740;28;20488;-58
2022/01/06 05:18:29;;;;;;;2.63;2.00;;;;;;;;;;4975847;28;20616;-59
2022/01/06 05:20:55;;;;;;;4.93;1.90;;;;;;;;;;4975357;28;20410;-58
2022/01/06 05:23:21;;;;;;;3.80;2.10;;;;;;;;;;4974413;28;20449;-59
2022/01/06 05:25:47;;;;;;;2.70;2.13;;;;;;;;;;4975293;28;20406;-58
2022/01/06 05:28:13;;;;;;;3.60;2.30;;;;;;;;;;4975086;28;20440;-58
2022/01/06 05:30:39;;;;;;;5.87;2.73;;;;;;;;;;4975140;28;20425;-57
2022/01/06 05:33:05;;;;;;;3.17;2.00;;;;;;;;;;4975130;28;20418;-58
2022/01/06 05:35:31;;;;;;;5.60;2.60;;;;;;;;;;4975022;28;20409;-55
2022/01/06 05:37:58;;;;;;;5.10;2.33;;;;;;;;;;4975080;28;20548;-58
2022/01/06 05:40:24;;;;;;;2.43;2.07;;;;;;;;;;4975309;28;20408;-57
2022/01/06 05:42:50;;;;;;;4.03;2.53;;;;;;;;;;4974870;28;20480;-58
2022/01/06 05:45:17;;;;;;;6.07;3.33;;;;;;;;;;4975024;28;20401;-59
2022/01/06 05:47:43;;;;;;;2.90;2.60;;;;;;;;;;4974835;28;20447;-58
2022/01/06 05:50:09;;;;;;;3.50;2.00;;;;;;;;;;4975001;28;20413;-58
2022/01/06 05:52:36;;;;;;;4.07;2.30;;;;;;;;;;4975071;28;20414;-58
2022/01/06 05:55:03;;;;;;;4.97;2.27;;;;;;;;;;4975028;28;20409;-59
2022/01/06 05:57:29;;;;;;;3.40;2.17;;;;;;;;;;4974894;28;20556;-59
2022/01/06 05:59:55;;;;;;;6.97;2.50;;;;;;;;;;4974771;28;20406;-59
2022/01/06 06:02:21;;;;;;;4.70;2.33;;;;;;;;;;4974876;28;20468;-56
2022/01/06 06:04:47;;;;;;;3.07;2.20;;;;;;;;;;4974883;28;20405;-57
2022/01/06 06:07:13;;;;;;;3.60;2.53;;;;;;;;;;4974557;28;20771;-58
2022/01/06 06:09:40;;;;;;;2.97;1.90;;;;;;;;;;4974477;28;20456;-57
2022/01/06 06:12:06;;;;;;;2.80;2.07;;;;;;;;;;4974612;28;20434;-55
2022/01/06 06:14:32;;;;;;;2.53;1.83;;;;;;;;;;4974487;28;20402;-58
2022/01/06 06:16:58;;;;;;;5.67;2.87;;;;;;;;;;4974587;28;20401;-60
2022/01/06 06:19:24;;;;;;;2.93;1.87;;;;;;;;;;4974333;28;20945;-58
2022/01/06 06:21:50;;;;;;;7.03;2.63;;;;;;;;;;4974447;28;20405;-56
2022/01/06 06:24:18;;;;;;;3.13;2.10;;;;;;;;;;4974724;28;20504;-58
2022/01/06 06:26:44;;;;;;;3.53;2.17;;;;;;;;;;4974568;28;20905;-55
2022/01/06 06:29:10;;;;;;;6.93;2.30;;;;;;;;;;4974317;28;20480;-56
2022/01/06 06:31:36;;;;;;;3.57;2.10;;;;;;;;;;4974332;28;20402;-58
2022/01/06 06:34:03;;;;;;;2.93;2.20;;;;;;;;;;4974673;28;20402;-58
2022/01/06 06:36:29;;;;;;;3.00;2.07;;;;;;;;;;4974532;28;20492;-58
2022/01/06 06:38:55;;;;;;;4.33;2.77;;;;;;;;;;4974001;28;20520;-56
2022/01/06 06:41:21;;;;;;;4.97;1.87;;;;;;;;;;4974534;28;20456;-57
2022/01/06 06:43:47;;;;;;;4.97;1.93;;;;;;;;;;4974650;28;20713;-57
2022/01/06 06:46:13;;;;;;;3.03;1.90;;;;;;;;;;4974219;28;20468;-57
2022/01/06 06:48:39;;;;;;;3.33;1.90;;;;;;;;;;4974117;28;20429;-55
2022/01/06 06:51:05;;;;;;;4.80;1.93;;;;;;;;;;4974508;28;20420;-59
2022/01/06 06:53:31;;;;;;;2.20;1.63;;;;;;;;;;4974329;28;20464;-54
2022/01/06 06:55:57;;;;;;;3.30;1.70;;;;;;;;;;4974355;28;20493;-58
2022/01/06 06:58:23;;;;;;;3.93;2.20;;;;;;;;;;4974044;28;20449;-56
2022/01/06 07:00:49;;;;;;;6.10;1.80;;;;;;;;;;4974365;28;20416;-55
2022/01/06 07:03:15;;;;;;;7.80;2.30;;;;;;;;;;4974379;28;20756;-58
2022/01/06 07:05:41;;;;;;;7.13;1.90;;;;;;;;;;4974069;28;20393;-56
2022/01/06 07:08:07;;;;;;;7.67;1.83;;;;;;;;;;4974339;28;20434;-59
2022/01/06 07:10:33;;;;;;;3.30;1.80;;;;;;;;;;4974079;28;20735;-58
2022/01/06 07:12:59;;;;;;;3.83;2.27;;;;;;;;;;4974032;28;20939;-57
2022/01/06 07:15:27;;;;;;;4.07;2.73;;;;;;;;;;4974100;28;20397;-58
2022/01/06 07:17:53;;;;;;;3.20;1.73;;;;;;;;;;4974025;28;20457;-57
2022/01/06 07:20:19;;;;;;;3.10;2.03;;;;;;;;;;4974342;28;20404;-54
2022/01/06 07:22:45;;;;;;;3.33;1.80;;;;;;;;;;4975473;28;20402;-58
2022/01/06 07:25:11;;;;;;;3.37;2.43;;;;;;;;;;4977438;28;20408;-58
2022/01/06 07:27:37;;;;;;;6.53;2.47;;;;;;;;;;4977317;28;20421;-59
2022/01/06 07:30:05;;;;;;;11.33;2.40;;;;;;;;;;4977839;28;20420;-59
2022/01/06 07:32:31;;;;;;;2.40;1.97;;;;;;;;;;4977325;28;20489;-57
2022/01/06 07:34:57;;;;;;;5.00;2.23;;;;;;;;;;4977231;28;20433;-58
2022/01/06 07:37:23;;;;;;;3.60;3.03;;;;;;;;;;4977523;28;20492;-58
2022/01/06 07:39:49;;;;;;;3.03;2.10;;;;;;;;;;4977384;28;20394;-57
2022/01/06 07:42:15;;;;;;;4.07;1.97;;;;;;;;;;4977227;28;20472;-59
2022/01/06 07:44:42;;;;;;;3.77;2.20;;;;;;;;;;4977035;28;20969;-59
2022/01/06 07:47:09;;;;;;;4.47;2.10;;;;;;;;;;4975706;28;20425;-60
2022/01/06 07:49:35;;;;;;;3.43;1.97;;;;;;;;;;4977221;28;20769;-57
2022/01/06 07:52:01;;;;;;;2.30;1.80;;;;;;;;;;4976856;28;20409;-59
2022/01/06 07:54:27;;;;;;;2.90;2.50;;;;;;;;;;4977084;28;20409;-58
2022/01/06 07:56:53;;;;;;;6.77;2.17;;;;;;;;;;4976872;28;20402;-60
2022/01/06 07:59:19;;;;;;;4.33;2.13;;;;;;;;;;4976652;28;20449;-57
2022/01/06 08:01:45;;;;;;;5.63;1.90;;;;;;;;;;4977055;28;20806;-60
2022/01/06 08:04:11;;;;;;;3.70;2.10;;;;;;;;;;4976693;28;20489;-59
2022/01/06 08:06:37;;;;;;;3.07;2.47;;;;;;;;;;4976679;28;20905;-59
2022/01/06 08:09:03;;;;;;;3.30;1.80;;;;;;;;;;4976625;28;20421;-58
2022/01/06 08:11:29;;;;;;;3.23;2.10;;;;;;;;;;4977247;28;20433;-56
2022/01/06 08:13:55;;;;;;;3.30;2.10;;;;;;;;;;4976677;28;20917;-55
2022/01/06 08:16:21;;;;;;;3.47;1.90;;;;;;;;;;4976720;28;20424;-58
2022/01/06 08:18:47;;;;;;;3.03;1.70;;;;;;;;;;4976713;28;20520;-58
2022/01/06 08:21:13;;;;;;;3.67;2.30;;;;;;;;;;4976320;28;20875;-56
2022/01/06 08:23:39;;;;;;;3.10;2.23;;;;;;;;;;4977152;28;20448;-59
2022/01/06 08:26:06;;;;;;;5.13;2.50;;;;;;;;;;4977756;28;20401;-56
2022/01/06 08:28:32;;;;;;;2.57;2.30;;;;;;;;;;4976671;28;20433;-59
2022/01/06 08:30:58;;;;;;;5.70;2.47;;;;;;;;;;4977354;28;20409;-58
2022/01/06 08:33:24;;;;;;;2.60;2.20;;;;;;;;;;4976904;28;20413;-59
2022/01/06 08:35:50;;;;;;;4.17;2.10;;;;;;;;;;4977478;28;20448;-59
2022/01/06 08:38:16;;;;;;;2.70;1.87;;;;;;;;;;4977258;28;20469;-58
2022/01/06 08:40:42;;;;;;;3.43;2.33;;;;;;;;;;4976084;28;20398;-59
2022/01/06 08:43:08;;;;;;;7.00;2.60;;;;;;;;;;4976067;28;20445;-56
2022/01/06 08:45:34;;;;;;;2.93;1.80;;;;;;;;;;4976247;28;20819;-58
2022/01/06 08:48:01;;;;;;;9.13;2.60;;;;;;;;;;4976367;28;20434;-57
2022/01/06 08:50:27;;;;;;;3.60;2.23;;;;;;;;;;4975933;28;20952;-56
2022/01/06 08:52:53;;;;;;;6.20;2.47;;;;;;;;;;4976273;28;20449;-59
2022/01/06 08:55:19;;;;;;;3.00;2.10;;;;;;;;;;4976064;28;20453;-57
2022/01/06 08:57:45;;;;;;;4.57;2.70;;;;;;;;;;4975582;28;20460;-55
2022/01/06 09:00:12;;;;;;;3.50;2.10;;;;;;;;;;4975864;28;20412;-55
2022/01/06 09:02:38;;;;;;;4.50;2.47;;;;;;;;;;4975945;28;20409;-57
2022/01/06 09:05:06;;;;;;;4.47;2.37;;;;;;;;;;4975700;28;20409;-59
2022/01/06 09:07:35;;;;;;;3.93;2.67;;;;;;;;;;4975725;28;20795;-56
2022/01/06 09:10:01;;;;;;;4.07;2.67;;;;;;;;;;4975584;28;20903;-58
2022/01/06 09:12:27;;;;;;;4.23;2.43;;;;;;;;;;4975567;28;20401;-54
2022/01/06 09:14:53;;;;;;;5.27;2.97;;;;;;;;;;4975514;28;20441;-57
2022/01/06 09:17:19;;;;;;;6.20;3.07;;;;;;;;;;4976083;28;20918;-58
2022/01/06 09:19:45;;;;;;;3.83;2.00;;;;;;;;;;4975579;28;20401;-55
2022/01/06 09:22:11;;;;;;;8.33;2.53;;;;;;;;;;4975374;28;20400;-56
2022/01/06 09:24:37;;;;;;;5.73;2.67;;;;;;;;;;4975264;28;20425;-56
2022/01/06 09:27:04;;;;;;;3.50;2.53;;;;;;;;;;4975389;28;20402;-56
2022/01/06 09:29:30;;;;;;;4.90;2.63;;;;;;;;;;4975430;28;20446;-57
2022/01/06 09:31:56;;;;;;;5.70;2.73;;;;;;;;;;4975115;28;20406;-59
2022/01/06 09:34:22;;;;;;;3.23;2.20;;;;;;;;;;4975419;28;20409;-57
2022/01/06 09:36:48;;;;;;;5.17;3.67;;;;;;;;;;4975153;28;20788;-56
2022/01/06 09:39:14;;;;;;;6.53;2.80;;;;;;;;;;4974968;28;20465;-56
2022/01/06 09:41:40;;;;;;;4.43;2.77;;;;;;;;;;4976188;28;20409;-55
2022/01/06 09:44:07;;;;;;;5.40;2.63;;;;;;;;;;4976231;28;20803;-56
2022/01/06 09:46:33;;;;;;;5.07;3.10;;;;;;;;;;4974831;28;20481;-58
2022/01/06 09:49:00;;;;;;;4.27;2.70;;;;;;;;;;4976543;28;20425;-60
2022/01/06 09:51:30;;;;;;;6.80;3.70;;;;;;;;;;4975824;28;20472;-55
2022/01/06 09:53:57;;;;;;;9.83;2.70;;;;;;;;;;4974985;28;20410;-55
2022/01/06 09:56:26;;;;;;;4.37;2.40;;;;;;;;;;4975015;28;20915;-56
2022/01/06 09:58:52;;;;;;;4.73;2.40;;;;;;;;;;4974905;28;20461;-58
2022/01/06 10:01:18;;;;;;;3.70;2.73;;;;;;;;;;4975407;28;20405;-56
2022/01/06 10:03:46;;;;;;;4.37;2.37;;;;;;;;;;4975438;28;20401;-60
2022/01/06 10:06:16;;;;;;;7.10;2.80;;;;;;;;;;4975626;28;20393;-59
2022/01/06 10:08:42;;;;;;;5.27;2.50;;;;;;;;;;4974723;28;20421;-58
2022/01/06 10:11:16;;;;;;;5.30;2.50;;;;;;;;;;4974974;28;20410;-59
2022/01/06 10:13:43;;;;;;;5.47;2.97;;;;;;;;;;4974911;28;20402;-59
2022/01/06 10:16:16;;;;;;;4.10;3.00;;;;;;;;;;4975114;28;20406;-56
2022/01/06 10:18:53;;;;;;;6.57;2.83;;;;;;;;;;4974753;28;20453;-57
2022/01/06 10:21:19;;;;;;;5.67;2.67;;;;;;;;;;4974857;28;20381;-59
2022/01/06 10:23:46;;;;;;;3.30;2.73;;;;;;;;;;4975008;28;20802;-57
2022/01/06 10:26:15;;;;;;;5.83;2.87;;;;;;;;;;4974831;28;20400;-59
2022/01/06 10:28:41;;;;;;;3.90;3.30;;;;;;;;;;4973261;28;20433;-58
2022/01/06 10:31:07;;;;;;;6.13;2.73;;;;;;;;;;4975158;28;20460;-59
2022/01/06 10:33:35;;;;;;;7.33;2.80;;;;;;;;;;4974522;28;20405;-55
2022/01/06 10:36:06;;;;;;;4.07;2.53;;;;;;;;;;4974669;28;20475;-59
2022/01/06 10:38:32;;;;;;;5.13;2.40;;;;;;;;;;4974404;28;20859;-58
2022/01/06 10:41:13;;;;;;;6.43;2.70;;;;;;;;;;4974370;28;20496;-56
2022/01/06 10:43:39;;;;;;;4.70;3.10;;;;;;;;;;4974694;28;20520;-58
2022/01/06 10:46:05;;;;;;;6.40;3.50;;;;;;;;;;4974431;28;20460;-59
2022/01/06 10:48:31;;;;;;;6.30;3.13;;;;;;;;;;4974356;28;20448;-59
2022/01/06 10:50:58;;;;;;;3.60;2.50;;;;;;;;;;4974681;28;20746;-59
2022/01/06 10:53:24;;;;;;;8.83;3.13;;;;;;;;;;4974169;28;20407;-57
2022/01/06 10:55:50;;;;;;;8.23;3.43;;;;;;;;;;4974244;28;20406;-57
2022/01/06 10:58:19;;;;;;;3.13;2.83;;;;;;;;;;4978128;28;20827;-58
2022/01/06 11:00:49;;;;;;;2.87;2.53;;;;;;;;;;4978137;28;20764;-57
2022/01/06 11:03:17;;;;;;;4.30;2.80;;;;;;;;;;4976629;28;20941;-58
2022/01/06 11:05:45;;;;;;;4.50;3.27;;;;;;;;;;4977765;28;20440;-59
2022/01/06 11:08:12;;;;;;;4.57;3.40;;;;;;;;;;4977610;28;20434;-56
2022/01/06 11:10:46;;;;;;;7.63;3.17;;;;;;;;;;4977924;28;20910;-57
2022/01/06 11:13:12;;;;;;;7.90;3.27;;;;;;;;;;4977609;28;20403;-59
2022/01/06 11:15:38;;;;;;;7.00;3.10;;;;;;;;;;4977477;28;20488;-59
2022/01/06 11:18:05;;;;;;;14.30;4.03;;;;;;;;;;4977610;28;20825;-58
2022/01/06 11:20:32;;;;;;;6.63;4.00;;;;;;;;;;4978008;28;20405;-57
2022/01/06 11:22:59;;;;;;;6.77;4.17;;;;;;;;;;4977679;28;20413;-57
2022/01/06 11:25:35;;;;;;;9.50;3.83;;;;;;;;;;4976329;28;20414;-60
2022/01/06 11:28:03;;;;;;;6.20;4.30;;;;;;;;;;4977517;28;20524;-56
2022/01/06 11:30:38;;;;;;;6.00;4.60;;;;;;;;;;4977453;28;20416;-60
2022/01/06 11:33:04;;;;;;;4.83;3.70;;;;;;;;;;4977794;28;20898;-58
2022/01/06 11:35:46;;;;;;;10.60;4.10;;;;;;;;;;4976119;28;20445;-59
2022/01/06 11:38:13;;;;;;;6.80;3.67;;;;;;;;;;4977036;28;20464;-60
2022/01/06 11:40:40;;;;;;;5.97;4.13;;;;;;;;;;4977456;28;20402;-60
2022/01/06 11:43:06;;;;;;;8.57;4.27;;;;;;;;;;4977424;28;20402;-58
2022/01/06 11:45:33;;;;;;;6.17;5.37;;;;;;;;;;4977116;28;20441;-58
2022/01/06 11:48:03;;;;;;;5.63;3.93;;;;;;;;;;4977341;28;20429;-57
2022/01/06 11:50:29;;;;;;;6.00;3.97;;;;;;;;;;4975873;28;20429;-57
2022/01/06 11:52:59;;;;;;;3.90;3.47;;;;;;;;;;4977377;28;20903;-57
2022/01/06 11:55:30;;;;;;;4.93;3.40;;;;;;;;;;4977283;28;20416;-58
2022/01/06 11:58:07;;;;;;;6.50;4.10;;;;;;;;;;4976903;28;21099;-59
2022/01/06 12:00:35;;;;;;;12.63;5.70;;;;;;;;;;4977375;28;20752;-59
2022/01/06 12:03:09;;;;;;;13.60;3.27;;;;;;;;;;4976981;28;20420;-58
2022/01/06 12:05:52;;;;;;;8.37;3.67;;;;;;;;;;4976759;28;20408;-58
2022/01/06 12:08:20;;;;;;;7.53;3.53;;;;;;;;;;4976067;28;20425;-59
2022/01/06 12:10:46;;;;;;;9.27;3.73;;;;;;;;;;4976637;28;20401;-57
2022/01/06 12:13:13;;;;;;;3.83;2.77;;;;;;;;;;4977617;28;20413;-58
2022/01/06 12:16:05;;;;;;;6.60;3.80;;;;;;;;;;4976877;28;20402;-60
2022/01/06 12:18:32;;;;;;;6.33;3.50;;;;;;;;;;4973654;28;20465;-59
2022/01/06 12:20:58;;;;;;;4.33;3.57;;;;;;;;;;4976967;28;20440;-56
2022/01/06 12:23:25;;;;;;;6.10;3.50;;;;;;;;;;4976520;28;20891;-58
2022/01/06 12:25:56;;;;;;;4.97;3.43;;;;;;;;;;4976432;28;20402;-57
2022/01/06 12:28:22;;;;;;;8.83;3.50;;;;;;;;;;4976680;28;20429;-55
2022/01/06 12:30:49;;;;;;;6.47;3.40;;;;;;;;;;4976513;28;20405;-56
2022/01/06 12:33:19;;;;;;;6.23;4.57;;;;;;;;;;4976330;28;20474;-57
2022/01/06 12:35:49;;;;;;;5.10;3.67;;;;;;;;;;4976222;28;20397;-59
2022/01/06 12:38:22;;;;;;;6.67;4.73;;;;;;;;;;4976107;28;20469;-59
2022/01/06 12:40:48;;;;;;;5.57;3.97;;;;;;;;;;4976379;28;20393;-59
2022/01/06 12:43:25;;;;;;;6.93;4.33;;;;;;;;;;4975929;28;20441;-59
2022/01/06 12:46:11;;;;;;;11.43;4.73;;;;;;;;;;4976054;28;20398;-58
2022/01/06 12:48:48;;;;;;;6.23;4.03;;;;;;;;;;4975819;28;20433;-57
2022/01/06 12:51:23;;;;;;;6.73;4.23;;;;;;;;;;4976204;28;20390;-59
2022/01/06 12:53:51;;;;;;;11.67;3.67;;;;;;;;;;4976003;28;20397;-58
2022/01/06 12:56:25;;;;;;;8.60;4.20;;;;;;;;;;4975955;28;20410;-58
2022/01/06 12:58:51;;;;;;;4.13;3.40;;;;;;;;;;4975559;28;20600;-56
2022/01/06 13:01:18;;;;;;;5.00;3.43;;;;;;;;;;4975675;28;20410;-58
2022/01/06 13:03:49;;;;;;;13.90;4.30;;;;;;;;;;4975828;28;20476;-58
2022/01/06 13:06:16;;;;;;;10.87;4.23;;;;;;;;;;4975743;28;20394;-58
2022/01/06 13:08:54;;;;;;;3.57;2.80;;;;;;;;;;4975615;28;20421;-57
2022/01/06 13:11:20;;;;;;;5.33;3.90;;;;;;;;;;4975772;28;20816;-59
2022/01/06 13:13:47;;;;;;;6.63;3.80;;;;;;;;;;4974264;28;20417;-55
2022/01/06 13:16:14;;;;;;;5.63;3.40;;;;;;;;;;4975736;28;20421;-58
2022/01/06 13:18:40;;;;;;;8.40;3.33;;;;;;;;;;4975325;28;20992;-58
2022/01/06 13:21:06;;;;;;;9.07;3.70;;;;;;;;;;4975414;28;20788;-58
2022/01/06 13:26:08;;;;;;;3.50;3.07;;;;;;;;;;4975474;28;20752;-56
2022/01/06 13:28:35;;;;;;;5.00;3.00;;;;;;;;;;4974194;28;20433;-58
2022/01/06 13:31:01;;;;;;;4.57;2.83;;;;;;;;;;4975603;28;20460;-59
2022/01/06 13:33:28;;;;;;;6.03;3.40;;;;;;;;;;4975544;28;20445;-59
2022/01/06 13:35:56;;;;;;;4.17;3.03;;;;;;;;;;4975970;28;20409;-59
2022/01/06 13:38:23;;;;;;;4.73;3.20;;;;;;;;;;4998670;23;20496;-68
2022/01/06 13:40:51;;;;;;;5.63;3.27;;;;;;;;;;4975172;28;20412;-68
2022/01/06 13:43:20;;;;;;;5.97;3.37;;;;;;;;;;4974813;28;20814;-68
2022/01/06 13:45:49;;;;;;;6.93;3.00;;;;;;;;;;4975004;28;20424;-68
2022/01/06 13:51:08;;;;;;;5.50;2.77;;;;;;;;;;4975444;28;20386;-68
2022/01/06 13:53:42;;;;;;;5.07;3.00;;;;;;;;;;4975137;28;20389;-68
2022/01/06 13:56:11;;;;;;;7.57;2.90;;;;;;;;;;4974832;28;20377;-68
2022/01/06 13:58:39;;;;;;;5.50;3.10;;;;;;;;;;4974835;28;20484;-68
2022/01/06 14:01:05;;;;;;;8.43;3.10;;;;;;;;;;4974722;28;20484;-68
2022/01/06 14:03:32;;;;;;;5.73;3.30;;;;;;;;;;4974938;28;20426;-68
2022/01/06 14:05:59;;;;;;;5.90;3.00;;;;;;;;;;4974917;28;20410;-69
2022/01/06 14:08:25;;;;;;;7.57;2.83;;;;;;;;;;4974474;28;20918;-68
2022/01/06 14:10:51;;;;;;;6.77;2.80;;;;;;;;;;4974871;28;20797;-69
2022/01/06 14:13:17;;;;;;;11.03;3.20;;;;;;;;;;4974726;28;20969;-68
2022/01/06 14:15:45;;;;;;;4.10;2.70;;;;;;;;;;4974351;28;20421;-68
2022/01/06 14:18:11;;;;;;;5.27;2.73;;;;;;;;;;4974464;28;20461;-68
2022/01/06 14:20:37;;;;;;;5.00;2.90;;;;;;;;;;4974309;28;20448;-68
2022/01/06 14:23:03;;;;;;;6.93;3.80;;;;;;;;;;4974479;28;20406;-68
2022/01/06 14:25:30;;;;;;;5.07;2.40;;;;;;;;;;4974552;28;20410;-68
2022/01/06 14:27:56;;;;;;;6.53;3.10;;;;;;;;;;4974249;28;20429;-68
2022/01/06 14:30:23;;;;;;;7.30;4.10;;;;;;;;;;4974345;28;20402;-68
2022/01/06 14:32:50;;;;;;;5.07;3.37;;;;;;;;;;4977659;28;20433;-68
2022/01/06 14:35:16;;;;;;;11.83;3.73;;;;;;;;;;4978162;28;20416;-70
2022/01/06 14:37:42;;;;;;;4.47;2.83;;;;;;;;;;4977899;28;20429;-68
2022/01/06 14:40:08;;;;;;;6.33;3.17;;;;;;;;;;4978967;28;20396;-68
2022/01/06 14:42:34;;;;;;;5.90;3.20;;;;;;;;;;4978351;28;20397;-68
2022/01/06 14:45:00;;;;;;;3.93;3.00;;;;;;;;;;4978262;28;20414;-68
2022/01/06 14:47:26;;;;;;;7.80;3.67;;;;;;;;;;4978203;28;20447;-68
2022/01/06 14:49:52;;;;;;;4.53;3.40;;;;;;;;;;4977980;28;20402;-68
2022/01/06 14:52:18;;;;;;;9.53;3.70;;;;;;;;;;4977806;28;20412;-68
2022/01/06 14:54:44;;;;;;;8.67;3.47;;;;;;;;;;4977806;28;20410;-68
2022/01/06 14:57:10;;;;;;;5.27;3.70;;;;;;;;;;4978099;28;20491;-68
2022/01/06 14:59:37;;;;;;;4.83;3.70;;;;;;;;;;4977637;28;20971;-68